N131CA KFAT-KOAK
Flight info
| Callsign | N131CA |
|---|---|
| Flight time | 0h 30m |
| Altitude | 22000 |
| Route | SUNOL |
| Aircraft | CL60/M-SBDE1E2E3FGHIJ1J4J5J7M3RWXYZ/LB1V1D1 |
Departure
| Time | 2026-04-22 00:06 |
|---|---|
| Airport | Fresno Yosemite International Airport (KFAT) |
Arrival
| Time | 2026-04-22 00:36 |
|---|---|
| Airport | San Francisco Bay Oakland International Airport (KOAK) |
| Time | Latitude | Longitude | Altitude | Speed | Heading |
|---|---|---|---|---|---|
| 2026-04-21 23:37 | 36.77806 | -119.72932 | 333 ft | 0 kts | 306° |
| 2026-04-22 00:01 | 36.77806 | -119.72933 | 333 ft | 0 kts | 306° |
| 2026-04-22 00:02 | 36.77825 | -119.72965 | 333 ft | 8 kts | 306° |
| 2026-04-22 00:02 | 36.77845 | -119.72979 | 333 ft | 6 kts | 4° |
| 2026-04-22 00:02 | 36.77898 | -119.72935 | 333 ft | 9 kts | 35° |
| 2026-04-22 00:02 | 36.77937 | -119.72900 | 333 ft | 2 kts | 36° |
| 2026-04-22 00:03 | 36.77967 | -119.72901 | 333 ft | 7 kts | 308° |
| 2026-04-22 00:03 | 36.78004 | -119.72968 | 333 ft | 11 kts | 306° |
| 2026-04-22 00:03 | 36.78060 | -119.73064 | 333 ft | 15 kts | 306° |
| 2026-04-22 00:03 | 36.78114 | -119.73157 | 333 ft | 12 kts | 305° |
| 2026-04-22 00:04 | 36.78172 | -119.73258 | 333 ft | 16 kts | 305° |
| 2026-04-22 00:04 | 36.78219 | -119.73289 | 333 ft | 9 kts | 5° |
| 2026-04-22 00:04 | 36.78280 | -119.73230 | 334 ft | 12 kts | 76° |
| 2026-04-22 00:04 | 36.78272 | -119.73160 | 335 ft | 2 kts | 103° |
| 2026-04-22 00:05 | 36.78289 | -119.73097 | 335 ft | 14 kts | 52° |
| 2026-04-22 00:05 | 36.78319 | -119.72974 | 336 ft | 12 kts | 107° |
| 2026-04-22 00:05 | 36.78324 | -119.72916 | 336 ft | 2 kts | 72° |
| 2026-04-22 00:05 | 36.78323 | -119.72875 | 336 ft | 6 kts | 114° |
| 2026-04-22 00:06 | 36.78270 | -119.72779 | 336 ft | 37 kts | 126° |
| 2026-04-22 00:06 | 36.77898 | -119.72128 | 342 ft | 141 kts | 127° |
| 2026-04-22 00:06 | 36.77275 | -119.71004 | 967 ft | 176 kts | 126° |
| 2026-04-22 00:06 | 36.76496 | -119.69623 | 1728 ft | 210 kts | 128° |
| 2026-04-22 00:07 | 36.75723 | -119.68143 | 3046 ft | 207 kts | 121° |
| 2026-04-22 00:07 | 36.75053 | -119.66631 | 4057 ft | 228 kts | 119° |
| 2026-04-22 00:07 | 36.74602 | -119.64712 | 5406 ft | 241 kts | 94° |
| 2026-04-22 00:07 | 36.75066 | -119.62737 | 6862 ft | 251 kts | 57° |
| 2026-04-22 00:08 | 36.76431 | -119.61388 | 8032 ft | 269 kts | 22° |
| 2026-04-22 00:08 | 36.78324 | -119.61169 | 9097 ft | 287 kts | 347° |
| 2026-04-22 00:08 | 36.80076 | -119.62292 | 10250 ft | 292 kts | 312° |
| 2026-04-22 00:08 | 36.81088 | -119.64413 | 11493 ft | 287 kts | 277° |
| 2026-04-22 00:09 | 36.80994 | -119.66685 | 13062 ft | 264 kts | 249° |
| 2026-04-22 00:09 | 36.80432 | -119.68908 | 14106 ft | 276 kts | 247° |
| 2026-04-22 00:09 | 36.79999 | -119.71246 | 15261 ft | 286 kts | 255° |
| 2026-04-22 00:09 | 36.79874 | -119.73711 | 16448 ft | 294 kts | 265° |
| 2026-04-22 00:10 | 36.80107 | -119.76258 | 17585 ft | 303 kts | 275° |
| 2026-04-22 00:10 | 36.80748 | -119.78745 | 18665 ft | 313 kts | 286° |
| 2026-04-22 00:10 | 36.81714 | -119.81190 | 19712 ft | 319 kts | 289° |
| 2026-04-22 00:10 | 36.82723 | -119.83664 | 20688 ft | 322 kts | 288° |
| 2026-04-22 00:11 | 36.83741 | -119.86173 | 21494 ft | 331 kts | 288° |
| 2026-04-22 00:11 | 36.84802 | -119.88807 | 21845 ft | 348 kts | 288° |
| 2026-04-22 00:11 | 36.85891 | -119.91490 | 21939 ft | 347 kts | 288° |
| 2026-04-22 00:11 | 36.87003 | -119.94217 | 21936 ft | 344 kts | 288° |
| 2026-04-22 00:12 | 36.88083 | -119.96873 | 21945 ft | 342 kts | 288° |
| 2026-04-22 00:12 | 36.89159 | -119.99523 | 21951 ft | 342 kts | 288° |
| 2026-04-22 00:12 | 36.90261 | -120.02243 | 21949 ft | 342 kts | 288° |
| 2026-04-22 00:12 | 36.91345 | -120.04920 | 21942 ft | 342 kts | 288° |
| 2026-04-22 00:13 | 36.92421 | -120.07582 | 21939 ft | 342 kts | 288° |
| 2026-04-22 00:13 | 36.93508 | -120.10272 | 21936 ft | 341 kts | 288° |
| 2026-04-22 00:13 | 36.94588 | -120.12947 | 21937 ft | 341 kts | 288° |
| 2026-04-22 00:13 | 36.95664 | -120.15617 | 21939 ft | 341 kts | 288° |
| 2026-04-22 00:14 | 36.96748 | -120.18307 | 21934 ft | 341 kts | 288° |
| 2026-04-22 00:14 | 36.97816 | -120.20962 | 21939 ft | 341 kts | 288° |
| 2026-04-22 00:14 | 36.98884 | -120.23617 | 21937 ft | 341 kts | 288° |
| 2026-04-22 00:14 | 36.99955 | -120.26283 | 21933 ft | 341 kts | 288° |
| 2026-04-22 00:15 | 37.01025 | -120.28951 | 21939 ft | 342 kts | 288° |
| 2026-04-22 00:15 | 37.02096 | -120.31622 | 21934 ft | 342 kts | 288° |
| 2026-04-22 00:15 | 37.03159 | -120.34277 | 21934 ft | 342 kts | 288° |
| 2026-04-22 00:15 | 37.04226 | -120.36942 | 21932 ft | 342 kts | 287° |
| 2026-04-22 00:16 | 37.05302 | -120.39631 | 21861 ft | 344 kts | 288° |
| 2026-04-22 00:16 | 37.06377 | -120.42326 | 21619 ft | 345 kts | 288° |
| 2026-04-22 00:16 | 37.07441 | -120.44986 | 21370 ft | 342 kts | 288° |
| 2026-04-22 00:16 | 37.08500 | -120.47637 | 21122 ft | 340 kts | 288° |
| 2026-04-22 00:17 | 37.09553 | -120.50277 | 20875 ft | 339 kts | 288° |
| 2026-04-22 00:17 | 37.10606 | -120.52919 | 20632 ft | 338 kts | 288° |
| 2026-04-22 00:17 | 37.11659 | -120.55566 | 20381 ft | 337 kts | 288° |
| 2026-04-22 00:17 | 37.12704 | -120.58195 | 20127 ft | 336 kts | 288° |
| 2026-04-22 00:18 | 37.13747 | -120.60819 | 19933 ft | 334 kts | 288° |
| 2026-04-22 00:18 | 37.14787 | -120.63439 | 19929 ft | 335 kts | 288° |
| 2026-04-22 00:18 | 37.15836 | -120.66087 | 19929 ft | 336 kts | 287° |
| 2026-04-22 00:18 | 37.16875 | -120.68713 | 19921 ft | 336 kts | 287° |
| 2026-04-22 00:19 | 37.17902 | -120.71307 | 19919 ft | 335 kts | 287° |
| 2026-04-22 00:19 | 37.18947 | -120.73949 | 19925 ft | 334 kts | 287° |
| 2026-04-22 00:19 | 37.19982 | -120.76566 | 19926 ft | 335 kts | 287° |
| 2026-04-22 00:19 | 37.21016 | -120.79185 | 19922 ft | 335 kts | 287° |
| 2026-04-22 00:20 | 37.22041 | -120.81784 | 19915 ft | 335 kts | 287° |
| 2026-04-22 00:20 | 37.23080 | -120.84421 | 19918 ft | 336 kts | 287° |
| 2026-04-22 00:20 | 37.24108 | -120.87032 | 19919 ft | 336 kts | 287° |
| 2026-04-22 00:20 | 37.25149 | -120.89678 | 19907 ft | 336 kts | 287° |
| 2026-04-22 00:21 | 37.26186 | -120.92316 | 19804 ft | 338 kts | 287° |
| 2026-04-22 00:21 | 37.27229 | -120.94972 | 19547 ft | 336 kts | 287° |
| 2026-04-22 00:21 | 37.28249 | -120.97563 | 19286 ft | 334 kts | 287° |
| 2026-04-22 00:21 | 37.29275 | -121.00178 | 19058 ft | 333 kts | 287° |
| 2026-04-22 00:22 | 37.30300 | -121.02795 | 18818 ft | 332 kts | 287° |
| 2026-04-22 00:22 | 37.31299 | -121.05339 | 18572 ft | 327 kts | 287° |
| 2026-04-22 00:22 | 37.32310 | -121.07926 | 18305 ft | 329 kts | 287° |
| 2026-04-22 00:22 | 37.33311 | -121.10487 | 18080 ft | 329 kts | 287° |
| 2026-04-22 00:23 | 37.34328 | -121.13091 | 17839 ft | 328 kts | 287° |
| 2026-04-22 00:23 | 37.35323 | -121.15631 | 17587 ft | 328 kts | 289° |
| 2026-04-22 00:23 | 37.36483 | -121.18118 | 17333 ft | 332 kts | 294° |
| 2026-04-22 00:23 | 37.37732 | -121.20596 | 17085 ft | 332 kts | 294° |
| 2026-04-22 00:24 | 37.38956 | -121.23040 | 16830 ft | 331 kts | 294° |
| 2026-04-22 00:24 | 37.40173 | -121.25470 | 16607 ft | 331 kts | 294° |
| 2026-04-22 00:24 | 37.41403 | -121.27932 | 16217 ft | 333 kts | 294° |
| 2026-04-22 00:24 | 37.42639 | -121.30409 | 15695 ft | 333 kts | 295° |
| 2026-04-22 00:25 | 37.43867 | -121.32869 | 15172 ft | 330 kts | 295° |
| 2026-04-22 00:25 | 37.45079 | -121.35300 | 14660 ft | 325 kts | 295° |
| 2026-04-22 00:25 | 37.46275 | -121.37699 | 14159 ft | 321 kts | 295° |
| 2026-04-22 00:25 | 37.47445 | -121.40052 | 13591 ft | 318 kts | 295° |
| 2026-04-22 00:26 | 37.48613 | -121.42406 | 12999 ft | 316 kts | 295° |
| 2026-04-22 00:26 | 37.49778 | -121.44753 | 12492 ft | 311 kts | 295° |
| 2026-04-22 00:26 | 37.50905 | -121.47026 | 12000 ft | 306 kts | 295° |
| 2026-04-22 00:26 | 37.52027 | -121.49290 | 11609 ft | 299 kts | 295° |
| 2026-04-22 00:27 | 37.53116 | -121.51492 | 11218 ft | 298 kts | 295° |
| 2026-04-22 00:27 | 37.54216 | -121.53721 | 10765 ft | 297 kts | 296° |
| 2026-04-22 00:27 | 37.55305 | -121.55926 | 10411 ft | 294 kts | 296° |
| 2026-04-22 00:27 | 37.56373 | -121.58092 | 9991 ft | 292 kts | 296° |
| 2026-04-22 00:28 | 37.57442 | -121.60262 | 9619 ft | 288 kts | 296° |
| 2026-04-22 00:28 | 37.58485 | -121.62377 | 9230 ft | 285 kts | 296° |
| 2026-04-22 00:28 | 37.59537 | -121.64515 | 8853 ft | 281 kts | 296° |
| 2026-04-22 00:28 | 37.60554 | -121.66584 | 8483 ft | 278 kts | 295° |
| 2026-04-22 00:29 | 37.61461 | -121.68697 | 8115 ft | 268 kts | 282° |
| 2026-04-22 00:29 | 37.61774 | -121.70958 | 7733 ft | 258 kts | 268° |
| 2026-04-22 00:29 | 37.61950 | -121.73177 | 7422 ft | 255 kts | 269° |
| 2026-04-22 00:29 | 37.62135 | -121.75428 | 7075 ft | 256 kts | 269° |
| 2026-04-22 00:30 | 37.62319 | -121.77649 | 6941 ft | 256 kts | 270° |
| 2026-04-22 00:30 | 37.62503 | -121.79870 | 6938 ft | 250 kts | 269° |
| 2026-04-22 00:30 | 37.62684 | -121.82062 | 6890 ft | 249 kts | 269° |
| 2026-04-22 00:30 | 37.62862 | -121.84245 | 6650 ft | 248 kts | 269° |
| 2026-04-22 00:31 | 37.63039 | -121.86403 | 6408 ft | 246 kts | 269° |
| 2026-04-22 00:31 | 37.63215 | -121.88568 | 6002 ft | 249 kts | 269° |
| 2026-04-22 00:31 | 37.63390 | -121.90738 | 5493 ft | 251 kts | 270° |
| 2026-04-22 00:31 | 37.63594 | -121.92941 | 5015 ft | 252 kts | 275° |
| 2026-04-22 00:32 | 37.64110 | -121.95055 | 4510 ft | 258 kts | 288° |
| 2026-04-22 00:32 | 37.64842 | -121.97152 | 3898 ft | 264 kts | 290° |
| 2026-04-22 00:32 | 37.65579 | -121.99274 | 3358 ft | 263 kts | 289° |
| 2026-04-22 00:32 | 37.66274 | -122.01368 | 3060 ft | 248 kts | 288° |
| 2026-04-22 00:33 | 37.66919 | -122.03320 | 2837 ft | 235 kts | 288° |
| 2026-04-22 00:33 | 37.67535 | -122.05205 | 2532 ft | 227 kts | 287° |
| 2026-04-22 00:33 | 37.68120 | -122.07010 | 2247 ft | 212 kts | 287° |
| 2026-04-22 00:33 | 37.68659 | -122.08664 | 1984 ft | 198 kts | 287° |
| 2026-04-22 00:34 | 37.69175 | -122.10254 | 1718 ft | 193 kts | 287° |
| 2026-04-22 00:34 | 37.69671 | -122.11779 | 1445 ft | 176 kts | 287° |
| 2026-04-22 00:34 | 37.70106 | -122.13099 | 1269 ft | 150 kts | 287° |
| 2026-04-22 00:34 | 37.70491 | -122.14269 | 1093 ft | 137 kts | 287° |
| 2026-04-22 00:35 | 37.70841 | -122.15356 | 881 ft | 130 kts | 287° |
| 2026-04-22 00:35 | 37.71179 | -122.16426 | 735 ft | 131 kts | 287° |
| 2026-04-22 00:35 | 37.71517 | -122.17494 | 550 ft | 130 kts | 285° |
| 2026-04-22 00:35 | 37.71865 | -122.18556 | 384 ft | 131 kts | 291° |
| 2026-04-22 00:36 | 37.72211 | -122.19610 | 225 ft | 131 kts | 288° |
| 2026-04-22 00:36 | 37.72555 | -122.20694 | 27 ft | 127 kts | 288° |
| 2026-04-22 00:36 | 37.72851 | -122.21628 | 12 ft | 103 kts | 291° |
| 2026-04-22 00:36 | 37.73050 | -122.22207 | 12 ft | 11 kts | 289° |
| 2026-04-22 00:37 | 37.73060 | -122.22214 | 12 ft | 3 kts | 39° |
| 2026-04-22 00:37 | 37.73094 | -122.22179 | 12 ft | 8 kts | 28° |
| 2026-04-22 00:37 | 37.73105 | -122.22173 | 12 ft | 0 kts | 28° |
| 2026-04-22 00:37 | 37.73114 | -122.22166 | 12 ft | 3 kts | 29° |
| 2026-04-22 00:38 | 37.73123 | -122.22156 | 12 ft | 3 kts | 69° |